createdAt,value
2019-01-05T00:01:56.710Z,-0.69
2019-01-05T00:04:44.679Z,-0.46
2019-01-05T00:07:32.654Z,-0.57
2019-01-05T00:10:20.605Z,-0.83
2019-01-05T00:13:09.379Z,-0.92
2019-01-05T00:15:57.669Z,-0.88
2019-01-05T00:18:45.809Z,-1.12
2019-01-05T00:24:36.108Z,-1.21
2019-01-05T00:30:26.412Z,-1.00
2019-01-05T00:36:21.857Z,-1.34
2019-01-05T00:47:32.275Z,-0.88
2019-01-05T00:53:25.513Z,-0.75
2019-01-05T00:56:14.588Z,-0.99
2019-01-05T00:59:08.501Z,-1.06
2019-01-05T01:01:57.384Z,-1.12
2019-01-05T01:04:48.465Z,-0.92
2019-01-05T01:07:36.532Z,-1.02
2019-01-05T01:10:24.529Z,-1.00
2019-01-05T01:13:13.302Z,-0.77
2019-01-05T01:16:01.382Z,-1.05
2019-01-05T01:18:49.499Z,-1.34
2019-01-05T01:24:21.247Z,-0.94
2019-01-05T01:27:09.423Z,-1.20
2019-01-05T01:32:59.610Z,-0.85
2019-01-05T01:35:47.903Z,-1.20
2019-01-05T01:39:14.706Z,-1.00
2019-01-05T01:42:02.793Z,-1.15
2019-01-05T01:50:40.691Z,-0.87
2019-01-05T01:53:39.267Z,-0.90
2019-01-05T02:02:36.549Z,-0.90
2019-01-05T02:05:33.133Z,-0.95
2019-01-05T02:14:47.274Z,-0.96
2019-01-05T02:24:25.986Z,-0.81
2019-01-05T02:27:36.201Z,-1.04
2019-01-05T02:37:38.860Z,-1.11
2019-01-05T02:41:02.241Z,-1.15
2019-01-05T02:44:08.826Z,-1.09
2019-01-05T02:47:35.596Z,-0.90
2019-01-05T02:51:02.308Z,-1.04
2019-01-05T02:54:35.213Z,-1.06
2019-01-05T02:58:01.944Z,-1.10
2019-01-05T03:04:40.498Z,-0.97
2019-01-05T03:11:30.742Z,-0.96
2019-01-05T03:14:58.260Z,-0.69
2019-01-05T03:18:24.971Z,-0.73
2019-01-05T03:21:36.109Z,-0.95
2019-01-05T03:25:01.802Z,-0.78
2019-01-05T03:28:28.502Z,-1.02
2019-01-05T03:31:55.228Z,-0.87
2019-01-05T03:35:21.939Z,-1.10
2019-01-05T03:41:55.154Z,-0.97
2019-01-05T03:45:21.862Z,-1.03
2019-01-05T03:48:34.775Z,-0.77
2019-01-05T03:51:53.393Z,-1.44
2019-01-05T03:55:20.092Z,-1.37
2019-01-05T03:58:46.808Z,-1.27
2019-01-05T04:02:16.319Z,-1.36
2019-01-05T04:05:39.218Z,-1.39
2019-01-05T04:09:02.723Z,-1.18
2019-01-05T04:12:29.297Z,-1.37
2019-01-05T04:15:56.019Z,-1.56
2019-01-05T04:19:22.637Z,-1.47
2019-01-05T04:22:49.342Z,-1.12
2019-01-05T04:26:18.891Z,-1.00
2019-01-05T04:29:52.212Z,-1.30
2019-01-05T04:33:16.784Z,-1.47
2019-01-05T04:36:50.596Z,-1.38
2019-01-05T04:40:09.245Z,-1.37
2019-01-05T04:43:39.203Z,-1.05
2019-01-05T04:47:05.907Z,-0.94
2019-01-05T04:50:32.841Z,-1.13
2019-01-05T04:54:00.604Z,-1.55
2019-01-05T04:57:28.214Z,-1.08
2019-01-05T05:00:52.528Z,-1.64
2019-01-05T05:04:20.223Z,-1.49
2019-01-05T05:10:58.142Z,-1.32
2019-01-05T05:17:39.882Z,-1.61
2019-01-05T05:21:06.550Z,-1.60
2019-01-05T05:24:34.047Z,-1.46
2019-01-05T05:28:00.685Z,-1.43
2019-01-05T05:31:20.133Z,-1.30
2019-01-05T05:34:46.910Z,-1.45
2019-01-05T05:38:05.367Z,-1.16
2019-01-05T05:41:32.209Z,-1.27
2019-01-05T05:44:57.577Z,-1.32
2019-01-05T05:48:28.134Z,-1.39
2019-01-05T05:51:55.641Z,-1.53
2019-01-05T05:58:38.153Z,-1.38
2019-01-05T06:02:04.847Z,-1.44
2019-01-05T06:08:43.175Z,-1.34
2019-01-05T06:12:03.478Z,-1.07
2019-01-05T06:15:31.027Z,-1.11
2019-01-05T06:18:57.950Z,-1.14
2019-01-05T06:22:20.537Z,-1.22
2019-01-05T06:25:47.150Z,-1.49
2019-01-05T06:29:13.958Z,-1.52
2019-01-05T06:32:41.503Z,-1.61
2019-01-05T06:36:08.117Z,-1.54
2019-01-05T06:39:37.650Z,-1.17
2019-01-05T06:43:07.163Z,-1.42
2019-01-05T06:46:40.611Z,-1.51
2019-01-05T06:50:07.331Z,-1.56
2019-01-05T06:53:34.026Z,-1.26
2019-01-05T06:57:00.788Z,-1.36
2019-01-05T07:00:27.450Z,-1.43
2019-01-05T07:03:54.173Z,-1.55
2019-01-05T07:07:20.865Z,-1.37
2019-01-05T07:17:19.197Z,-1.34
2019-01-05T07:20:45.923Z,-1.42
2019-01-05T07:24:12.642Z,-1.10
2019-01-05T07:27:25.196Z,-1.22
2019-01-05T07:30:51.902Z,-1.37
2019-01-05T07:34:24.575Z,-1.17
2019-01-05T07:37:52.666Z,-1.12
2019-01-05T07:41:22.563Z,-1.22
2019-01-05T07:44:50.086Z,-1.17
2019-01-05T07:48:14.862Z,-1.22
2019-01-05T07:51:42.385Z,-1.30
2019-01-05T07:55:09.093Z,-1.27
2019-01-05T07:58:35.701Z,-1.11
2019-01-05T08:02:02.470Z,-1.09
2019-01-05T08:05:29.205Z,-1.04
2019-01-05T08:08:58.767Z,-1.05
2019-01-05T08:12:25.383Z,-0.99
2019-01-05T08:18:58.706Z,-0.84
2019-01-05T08:22:25.307Z,-1.00
2019-01-05T08:25:35.627Z,-1.04
2019-01-05T08:29:02.366Z,-0.92
2019-01-05T08:32:29.086Z,-0.93
2019-01-05T08:35:55.803Z,-0.86
2019-01-05T08:39:25.611Z,-0.79
2019-01-05T08:42:52.306Z,-0.80
2019-01-05T08:46:18.918Z,-0.64
2019-01-05T08:49:35.206Z,-0.79
2019-01-05T08:53:15.777Z,-0.56
2019-01-05T08:57:09.429Z,-0.48
2019-01-05T09:00:40.612Z,-0.36
2019-01-05T09:04:07.314Z,-0.32
2019-01-05T09:07:34.019Z,-0.37
2019-01-05T09:11:00.965Z,-0.50
2019-01-05T09:17:40.421Z,-0.34
2019-01-05T09:20:58.839Z,-0.38
2019-01-05T09:27:37.559Z,-0.21
2019-01-05T09:31:04.167Z,-0.09
2019-01-05T09:34:30.888Z,-0.12
2019-01-05T09:37:54.164Z,-0.20
2019-01-05T09:41:20.782Z,0.07
2019-01-05T09:44:47.550Z,0.15
2019-01-05T09:48:14.167Z,0.13
2019-01-05T09:51:40.778Z,0.13
2019-01-05T09:55:07.540Z,0.05
2019-01-05T09:58:17.340Z,-0.17
2019-01-05T10:01:44.034Z,-0.02
2019-01-05T10:05:13.665Z,0.15
2019-01-05T10:08:40.335Z,0.04
2019-01-05T10:12:07.091Z,0.08
2019-01-05T10:15:33.811Z,-0.02
2019-01-05T10:19:00.534Z,0.06
2019-01-05T10:22:27.153Z,0.05
2019-01-05T10:25:53.849Z,0.26
2019-01-05T10:29:20.514Z,0.30
2019-01-05T10:32:47.240Z,0.43
2019-01-05T10:36:13.867Z,0.20
2019-01-05T10:39:40.631Z,0.32
2019-01-05T10:43:07.243Z,0.23
2019-01-05T10:46:33.957Z,0.59
2019-01-05T10:49:55.201Z,0.29
2019-01-05T10:53:22.714Z,0.17
2019-01-05T10:56:49.420Z,0.54
2019-01-05T11:00:22.353Z,0.55
2019-01-05T11:04:24.709Z,0.54
2019-01-05T11:07:40.289Z,0.47
2019-01-05T11:11:10.082Z,0.40
2019-01-05T11:14:31.405Z,0.40
2019-01-05T11:17:59.020Z,0.46
2019-01-05T11:21:21.206Z,0.55
2019-01-05T11:24:48.989Z,0.63
2019-01-05T11:28:15.755Z,0.79
2019-01-05T11:31:42.457Z,0.85
2019-01-05T11:38:21.728Z,0.80
2019-01-05T11:41:48.503Z,0.86
2019-01-05T11:45:15.095Z,0.79
2019-01-05T11:51:37.612Z,0.60
2019-01-05T11:55:04.216Z,0.78
2019-01-05T11:58:31.030Z,0.97
2019-01-05T12:05:10.187Z,0.99
2019-01-05T12:08:36.845Z,0.97
2019-01-05T12:15:11.976Z,0.99
2019-01-05T12:18:39.505Z,0.87
2019-01-05T12:22:06.260Z,0.86
2019-01-05T12:25:29.700Z,0.87
2019-01-05T12:28:57.215Z,0.80
2019-01-05T12:35:20.820Z,0.91
2019-01-05T12:38:49.061Z,0.87
2019-01-05T12:42:15.725Z,0.70
2019-01-05T12:45:43.236Z,0.96
2019-01-05T12:49:12.735Z,0.77
2019-01-05T12:52:43.196Z,0.84
2019-01-05T12:59:33.725Z,0.85
2019-01-05T13:03:01.249Z,0.96
2019-01-05T13:06:28.014Z,1.12
2019-01-05T13:09:54.625Z,1.13
2019-01-05T13:13:21.562Z,1.10
2019-01-05T13:16:54.139Z,0.85
2019-01-05T13:20:16.906Z,0.95
2019-01-05T13:23:46.789Z,0.97
2019-01-05T13:27:08.218Z,0.83
2019-01-05T13:30:35.784Z,0.92
2019-01-05T13:34:02.382Z,1.07
2019-01-05T13:37:29.196Z,1.14
2019-01-05T13:40:55.899Z,1.11
2019-01-05T13:44:22.665Z,1.05
2019-01-05T13:47:47.418Z,1.17
2019-01-05T13:51:14.235Z,0.99
2019-01-05T13:54:07.277Z,1.18
2019-01-05T13:57:10.565Z,1.10
2019-01-05T13:59:58.555Z,0.99
2019-01-05T14:05:39.309Z,1.09
2019-01-05T14:08:27.293Z,0.93
2019-01-05T14:11:15.244Z,0.94
2019-01-05T14:14:04.022Z,0.89
2019-01-05T14:16:52.009Z,0.68
2019-01-05T14:19:39.991Z,0.85
2019-01-05T14:22:27.882Z,0.81
2019-01-05T14:25:15.759Z,0.85
2019-01-05T14:28:03.738Z,0.73
2019-01-05T14:30:51.817Z,0.55
2019-01-05T14:33:40.603Z,0.82
2019-01-05T14:36:28.578Z,0.63
2019-01-05T14:39:16.447Z,0.42
2019-01-05T14:42:04.477Z,0.59
2019-01-05T14:44:53.260Z,0.76
2019-01-05T14:47:41.233Z,0.76
2019-01-05T14:50:29.205Z,0.77
2019-01-05T14:53:17.090Z,0.74
2019-01-05T14:56:05.873Z,0.75
2019-01-05T14:58:53.937Z,0.80
2019-01-05T15:01:42.707Z,0.78
2019-01-05T15:04:30.685Z,0.77
2019-01-05T15:07:18.689Z,0.78
2019-01-05T15:10:06.686Z,0.85
2019-01-05T15:12:54.670Z,0.81
2019-01-05T15:15:42.705Z,0.81
2019-01-05T15:18:31.511Z,0.78
2019-01-05T15:21:19.545Z,0.98
2019-01-05T15:24:07.542Z,0.79
2019-01-05T15:26:55.519Z,0.78
2019-01-05T15:29:43.506Z,0.79
2019-01-05T15:32:31.493Z,0.70
2019-01-05T15:35:19.464Z,0.69
2019-01-05T15:38:07.440Z,0.64
2019-01-05T15:40:55.414Z,1.01
2019-01-05T15:43:43.463Z,0.87
2019-01-05T15:46:31.453Z,1.01
2019-01-05T15:49:19.440Z,0.69
2019-01-05T15:52:07.476Z,0.57
2019-01-05T15:55:01.334Z,0.49
2019-01-05T15:57:49.323Z,0.60
2019-01-05T16:00:37.195Z,0.60
2019-01-05T16:03:25.178Z,0.43
2019-01-05T16:06:13.112Z,0.46
2019-01-05T16:09:00.996Z,0.37
2019-01-05T16:11:49.077Z,0.47
2019-01-05T16:14:36.947Z,0.53
2019-01-05T16:17:24.834Z,0.54
2019-01-05T16:20:12.754Z,0.28
2019-01-05T16:23:00.638Z,0.36
2019-01-05T16:25:48.615Z,0.34
2019-01-05T16:28:36.596Z,0.36
2019-01-05T16:31:24.682Z,0.35
2019-01-05T16:34:12.540Z,0.12
2019-01-05T16:37:00.514Z,0.37
2019-01-05T16:39:48.602Z,0.39
2019-01-05T16:42:36.950Z,0.36
2019-01-05T16:45:25.757Z,0.34
2019-01-05T16:48:13.810Z,0.24
2019-01-05T16:51:01.696Z,0.19
2019-01-05T16:53:49.675Z,0.25
2019-01-05T16:56:37.648Z,0.26
2019-01-05T16:59:26.095Z,0.02
2019-01-05T17:02:14.074Z,0.10
2019-01-05T17:05:02.059Z,0.23
2019-01-05T17:07:50.060Z,0.09
2019-01-05T17:10:38.045Z,0.11
2019-01-05T17:13:26.026Z,-0.06
2019-01-05T17:16:13.930Z,0.04
2019-01-05T17:21:47.128Z,0.05
2019-01-05T17:24:35.233Z,0.18
2019-01-05T17:27:23.270Z,0.33
2019-01-05T17:30:12.107Z,0.26
2019-01-05T17:33:00.908Z,0.30
2019-01-05T17:35:48.868Z,0.20
2019-01-05T17:38:36.770Z,0.31
2019-01-05T17:41:24.739Z,0.19
2019-01-05T17:44:12.730Z,0.10
2019-01-05T17:47:00.614Z,0.11
2019-01-05T17:49:53.897Z,0.12
2019-01-05T17:52:42.697Z,0.02
2019-01-05T17:55:30.578Z,0.08
2019-01-05T17:58:31.314Z,0.05
2019-01-05T18:01:17.475Z,-0.01
2019-01-05T18:04:05.541Z,0.00
2019-01-05T18:06:54.617Z,-0.07
2019-01-05T18:09:43.534Z,-0.33
2019-01-05T18:12:31.532Z,-0.07
2019-01-05T18:15:19.824Z,-0.01
2019-01-05T18:18:24.313Z,-0.04
2019-01-05T18:21:13.660Z,-0.29
2019-01-05T18:24:02.464Z,-0.17
2019-01-05T18:26:50.649Z,-0.28
2019-01-05T18:29:58.057Z,-0.41
2019-01-05T18:32:46.517Z,-0.42
2019-01-05T18:35:34.480Z,0.03
2019-01-05T18:38:23.601Z,-0.04
2019-01-05T18:41:11.597Z,0.00
2019-01-05T18:44:00.508Z,-0.09
2019-01-05T18:46:48.494Z,-0.01
2019-01-05T18:49:37.578Z,-0.01
2019-01-05T18:52:25.888Z,-0.21
2019-01-05T18:55:13.909Z,-0.45
2019-01-05T18:58:02.391Z,-0.25
2019-01-05T19:01:09.997Z,-0.17
2019-01-05T19:04:03.781Z,-0.20
2019-01-05T19:06:52.661Z,-0.18
2019-01-05T19:09:43.118Z,-0.47
2019-01-05T19:12:31.118Z,-0.68
2019-01-05T19:15:19.193Z,-0.45
2019-01-05T19:18:07.247Z,-0.75
2019-01-05T19:20:55.211Z,-0.54
2019-01-05T19:23:43.101Z,-0.44
2019-01-05T19:26:31.065Z,-0.62
2019-01-05T19:29:19.890Z,-0.87
2019-01-05T19:32:07.970Z,-0.60
2019-01-05T19:34:56.007Z,-0.76
2019-01-05T19:37:43.995Z,-0.90
2019-01-05T19:40:51.595Z,-1.06
2019-01-05T19:43:39.680Z,-0.96
2019-01-05T19:46:29.513Z,-0.87
2019-01-05T19:49:11.919Z,-1.12
2019-01-05T19:52:00.721Z,-0.84
2019-01-05T19:54:48.882Z,-0.51
2019-01-05T19:57:36.860Z,-0.67
2019-01-05T20:00:25.869Z,-0.82
2019-01-05T20:03:13.905Z,-0.92
2019-01-05T20:05:59.312Z,-0.63
2019-01-05T20:08:47.337Z,-0.71
2019-01-05T20:11:36.142Z,-0.42
2019-01-05T20:14:24.123Z,-0.97
2019-01-05T20:17:12.104Z,-1.14
2019-01-05T20:20:00.255Z,-1.29
2019-01-05T20:22:48.290Z,-1.39
2019-01-05T20:25:36.169Z,-1.46
2019-01-05T20:28:24.154Z,-1.63
2019-01-05T20:31:12.146Z,-1.35
2019-01-05T20:34:00.211Z,-1.44
2019-01-05T20:36:48.194Z,-1.27
2019-01-05T20:39:26.905Z,-1.33
2019-01-05T20:42:15.690Z,-1.55
2019-01-05T20:45:03.577Z,-1.51
2019-01-05T20:47:51.656Z,-1.68
2019-01-05T20:50:39.637Z,-1.58
2019-01-05T20:53:27.635Z,-1.75
2019-01-05T20:56:15.672Z,-1.40
2019-01-05T20:59:04.438Z,-1.85
2019-01-05T21:01:52.388Z,-2.20
2019-01-05T21:04:40.365Z,-1.99
2019-01-05T21:07:28.621Z,-2.22
2019-01-05T21:10:16.610Z,-2.47
2019-01-05T21:13:04.699Z,-2.19
2019-01-05T21:15:52.688Z,-2.37
2019-01-05T21:18:40.702Z,-2.41
2019-01-05T21:21:28.595Z,-2.40
2019-01-05T21:24:16.569Z,-2.26
2019-01-05T21:27:04.452Z,-2.23
2019-01-05T21:29:52.960Z,-2.32
2019-01-05T21:32:40.847Z,-2.31
2019-01-05T21:35:28.824Z,-2.69
2019-01-05T21:41:09.820Z,-2.81
2019-01-05T21:43:57.796Z,-2.83
2019-01-05T21:46:46.613Z,-2.67
2019-01-05T21:49:34.497Z,-3.23
2019-01-05T21:52:23.278Z,-2.97
2019-01-05T21:55:11.146Z,-3.05
2019-01-05T21:57:59.029Z,-2.86
2019-01-05T22:00:47.064Z,-2.81
2019-01-05T22:03:35.054Z,-2.44
2019-01-05T22:06:23.038Z,-2.17
2019-01-05T22:09:11.030Z,-2.51
2019-01-05T22:11:59.013Z,-2.73
2019-01-05T22:14:46.903Z,-2.52
2019-01-05T22:17:34.785Z,-2.99
2019-01-05T22:20:23.062Z,-2.75
2019-01-05T22:23:11.125Z,-2.67
2019-01-05T22:25:59.905Z,-2.85
2019-01-05T22:28:47.845Z,-2.73
2019-01-05T22:34:38.480Z,-2.71
2019-01-05T22:37:26.485Z,-2.85
2019-01-05T22:40:14.486Z,-2.79
2019-01-05T22:43:03.328Z,-2.55
2019-01-05T22:45:52.135Z,-2.59
2019-01-05T22:48:40.022Z,-2.37
2019-01-05T22:51:28.008Z,-2.58
2019-01-05T22:54:15.938Z,-2.65
2019-01-05T22:57:04.725Z,-2.60
2019-01-05T23:02:47.101Z,-2.65
2019-01-05T23:05:34.981Z,-2.86
2019-01-05T23:08:25.726Z,-2.54
2019-01-05T23:11:14.509Z,-2.56
2019-01-05T23:14:02.387Z,-2.53
2019-01-05T23:16:50.362Z,-2.81
2019-01-05T23:19:38.246Z,-2.84
2019-01-05T23:22:26.291Z,-2.89
2019-01-05T23:25:14.265Z,-2.55
2019-01-05T23:28:02.349Z,-2.73
2019-01-05T23:30:50.332Z,-2.69
2019-01-05T23:33:38.372Z,-2.86
2019-01-05T23:36:27.146Z,-2.71
2019-01-05T23:39:15.086Z,-3.02
2019-01-05T23:42:03.859Z,-3.21
2019-01-05T23:44:51.831Z,-3.34
2019-01-05T23:47:39.811Z,-3.36
2019-01-05T23:50:27.785Z,-3.08
2019-01-05T23:53:15.673Z,-3.66
2019-01-05T23:56:03.661Z,-3.55
2019-01-05T23:58:51.744Z,-3.44
